createdAt,value
2022-09-03T00:00:08.860Z,100.00
2022-09-03T00:02:42.867Z,100.00
2022-09-03T00:05:18.942Z,100.00
2022-09-03T00:07:56.730Z,100.00
2022-09-03T00:10:31.313Z,100.00
2022-09-03T00:13:03.957Z,100.00
2022-09-03T00:15:36.011Z,100.00
2022-09-03T00:18:09.193Z,100.00
2022-09-03T00:20:42.754Z,100.00
2022-09-03T00:23:15.777Z,100.00
2022-09-03T00:25:48.131Z,100.00
2022-09-03T00:28:25.822Z,100.00
2022-09-03T00:31:06.744Z,100.00
2022-09-03T00:33:38.786Z,100.00
2022-09-03T00:36:15.893Z,100.00
2022-09-03T00:38:44.055Z,100.00
2022-09-03T00:41:25.941Z,100.00
2022-09-03T00:44:07.452Z,100.00
2022-09-03T00:46:43.386Z,100.00
2022-09-03T00:49:26.364Z,100.00
2022-09-03T00:52:03.606Z,100.00
2022-09-03T00:54:44.208Z,100.00
2022-09-03T00:57:33.509Z,100.00
2022-09-03T01:00:07.587Z,100.00
2022-09-03T01:02:49.178Z,100.00
2022-09-03T01:05:29.766Z,100.00
2022-09-03T01:08:15.854Z,100.00
2022-09-03T01:10:55.200Z,100.00
2022-09-03T01:13:29.989Z,100.00
2022-09-03T01:16:10.775Z,100.00
2022-09-03T01:18:50.583Z,100.00
2022-09-03T01:21:59.529Z,100.00
2022-09-03T01:24:53.194Z,100.00
2022-09-03T01:27:36.032Z,100.00
2022-09-03T01:30:10.843Z,100.00
2022-09-03T01:32:47.024Z,100.00
2022-09-03T01:35:24.253Z,100.00
2022-09-03T01:38:09.718Z,100.00
2022-09-03T01:40:47.833Z,100.00
2022-09-03T01:43:37.071Z,100.00
2022-09-03T01:46:13.998Z,100.00
2022-09-03T01:48:50.687Z,100.00
2022-09-03T01:51:22.704Z,100.00
2022-09-03T01:54:27.561Z,100.00
2022-09-03T01:57:37.376Z,100.00
2022-09-03T02:00:10.630Z,100.00
2022-09-03T02:02:42.176Z,100.00
2022-09-03T02:05:14.214Z,100.00
2022-09-03T02:07:44.385Z,100.00
2022-09-03T02:10:14.906Z,100.00
2022-09-03T02:12:47.775Z,100.00
2022-09-03T02:15:19.488Z,100.00
2022-09-03T02:17:55.202Z,100.00
2022-09-03T02:20:27.352Z,100.00
2022-09-03T02:22:57.124Z,100.00
2022-09-03T02:25:31.666Z,100.00
2022-09-03T02:28:00.973Z,100.00
2022-09-03T02:30:29.378Z,100.00
2022-09-03T02:32:59.781Z,100.00
2022-09-03T02:35:27.864Z,100.00
2022-09-03T02:37:56.067Z,100.00
2022-09-03T02:40:24.149Z,100.00
2022-09-03T02:42:53.378Z,100.00
2022-09-03T02:45:28.090Z,100.00
2022-09-03T02:48:00.578Z,100.00
2022-09-03T02:50:28.881Z,100.00
2022-09-03T02:52:56.900Z,100.00
2022-09-03T02:55:24.951Z,100.00
2022-09-03T02:57:52.963Z,100.00
2022-09-03T03:00:20.981Z,100.00
2022-09-03T03:02:49.053Z,100.00
2022-09-03T03:05:26.037Z,100.00
2022-09-03T03:07:58.645Z,100.00
2022-09-03T03:10:26.717Z,100.00
2022-09-03T03:12:54.914Z,100.00
2022-09-03T03:15:23.022Z,100.00
2022-09-03T03:17:51.038Z,100.00
2022-09-03T03:20:20.415Z,100.00
2022-09-03T03:22:48.461Z,100.00
2022-09-03T03:25:16.697Z,100.00
2022-09-03T03:27:45.162Z,100.00
2022-09-03T03:30:14.425Z,100.00
2022-09-03T03:32:42.445Z,100.00
2022-09-03T03:35:11.816Z,100.00
2022-09-03T03:37:41.365Z,100.00
2022-09-03T03:40:10.539Z,100.00
2022-09-03T03:42:38.802Z,100.00
2022-09-03T03:45:07.801Z,100.00
2022-09-03T03:47:35.828Z,100.00
2022-09-03T03:50:04.585Z,100.00
2022-09-03T03:52:32.618Z,100.00
2022-09-03T03:55:02.092Z,100.00
2022-09-03T03:57:32.252Z,100.00
2022-09-03T04:00:00.290Z,100.00
2022-09-03T04:02:28.318Z,100.00
2022-09-03T04:04:56.371Z,100.00
2022-09-03T04:07:24.456Z,100.00
2022-09-03T04:09:52.476Z,100.00
2022-09-03T04:12:21.816Z,100.00
2022-09-03T04:14:49.856Z,100.00
2022-09-03T04:17:21.001Z,100.00
2022-09-03T04:19:51.311Z,100.00
2022-09-03T04:22:20.648Z,100.00
2022-09-03T04:24:48.659Z,100.00
2022-09-03T04:27:16.711Z,100.00
2022-09-03T04:29:46.084Z,100.00
2022-09-03T04:32:31.496Z,100.00
2022-09-03T04:34:59.496Z,100.00
2022-09-03T04:37:27.497Z,100.00
2022-09-03T04:39:55.607Z,100.00
2022-09-03T04:42:23.702Z,100.00
2022-09-03T04:44:53.052Z,100.00
2022-09-03T04:47:21.075Z,100.00
2022-09-03T04:49:49.054Z,100.00
2022-09-03T04:52:17.129Z,100.00
2022-09-03T04:54:45.157Z,100.00
2022-09-03T04:57:13.173Z,100.00
2022-09-03T04:59:42.717Z,100.00
2022-09-03T05:02:12.313Z,100.00
2022-09-03T05:04:40.362Z,100.00
2022-09-03T05:07:08.621Z,100.00
2022-09-03T05:09:36.639Z,100.00
2022-09-03T05:12:05.172Z,100.00
2022-09-03T05:14:33.585Z,100.00
2022-09-03T05:17:01.581Z,100.00
2022-09-03T05:19:31.696Z,100.00
2022-09-03T05:21:59.726Z,100.00
2022-09-03T05:24:27.740Z,100.00
2022-09-03T05:26:55.784Z,100.00
2022-09-03T05:29:24.268Z,100.00
2022-09-03T05:31:52.366Z,100.00
2022-09-03T05:34:20.497Z,100.00
2022-09-03T05:36:49.917Z,100.00
2022-09-03T05:39:18.131Z,100.00
2022-09-03T05:41:46.235Z,100.00
2022-09-03T05:44:14.619Z,100.00
2022-09-03T05:46:42.667Z,100.00
2022-09-03T05:49:11.706Z,100.00
2022-09-03T05:51:40.551Z,100.00
2022-09-03T05:54:10.619Z,100.00
2022-09-03T05:56:41.077Z,100.00
2022-09-03T05:59:11.282Z,100.00
2022-09-03T06:01:40.989Z,100.00
2022-09-03T06:04:15.642Z,100.00
2022-09-03T06:06:45.555Z,100.00
2022-09-03T06:09:17.967Z,100.00
2022-09-03T06:11:47.273Z,100.00
2022-09-03T06:14:16.474Z,100.00
2022-09-03T06:16:48.902Z,100.00
2022-09-03T06:19:17.743Z,100.00
2022-09-03T06:21:47.416Z,100.00
2022-09-03T06:24:18.825Z,100.00
2022-09-03T06:26:46.888Z,100.00
2022-09-03T06:29:15.087Z,100.00
2022-09-03T06:31:43.198Z,100.00
2022-09-03T06:34:12.531Z,100.00
2022-09-03T06:36:41.345Z,100.00
2022-09-03T06:39:09.458Z,100.00
2022-09-03T06:41:40.069Z,100.00
2022-09-03T06:44:11.770Z,100.00
2022-09-03T06:46:42.528Z,100.00
2022-09-03T06:49:11.565Z,100.00
2022-09-03T06:51:40.539Z,100.00
2022-09-03T06:54:10.978Z,100.00
2022-09-03T06:56:41.850Z,100.00
2022-09-03T06:59:11.579Z,100.00
2022-09-03T07:01:42.357Z,100.00
2022-09-03T07:04:13.573Z,100.00
2022-09-03T07:06:42.890Z,100.00
2022-09-03T07:09:13.231Z,100.00
2022-09-03T07:11:47.461Z,100.00
2022-09-03T07:14:17.981Z,100.00
2022-09-03T07:16:47.074Z,100.00
2022-09-03T07:19:15.516Z,100.00
2022-09-03T07:21:49.273Z,100.00
2022-09-03T07:24:18.590Z,100.00
2022-09-03T07:26:48.934Z,100.00
2022-09-03T07:29:20.176Z,100.00
2022-09-03T07:31:51.404Z,100.00
2022-09-03T07:34:20.375Z,100.00
2022-09-03T07:36:51.261Z,100.00
2022-09-03T07:39:20.452Z,100.00
2022-09-03T07:41:50.264Z,100.00
2022-09-03T07:44:20.413Z,100.00
2022-09-03T07:46:51.166Z,100.00
2022-09-03T07:49:21.251Z,100.00
2022-09-03T07:51:50.843Z,96.42
2022-09-03T07:54:20.308Z,96.14
2022-09-03T07:56:50.328Z,97.16
2022-09-03T07:59:19.299Z,99.41
2022-09-03T08:01:47.265Z,95.80
2022-09-03T08:04:15.339Z,95.08
2022-09-03T08:06:43.661Z,93.32
2022-09-03T08:09:13.752Z,92.65
2022-09-03T08:11:44.842Z,92.17
2022-09-03T08:14:15.412Z,90.47
2022-09-03T08:16:45.955Z,89.51
2022-09-03T08:19:14.855Z,91.07
2022-09-03T08:21:43.303Z,92.24
2022-09-03T08:24:12.103Z,92.54
2022-09-03T08:26:46.209Z,90.31
2022-09-03T08:29:17.257Z,89.17
2022-09-03T08:31:45.483Z,87.12
2022-09-03T08:34:14.744Z,88.01
2022-09-03T08:36:42.996Z,87.49
2022-09-03T08:39:12.314Z,85.77
2022-09-03T08:41:50.393Z,82.37
2022-09-03T08:44:26.816Z,81.20
2022-09-03T08:47:01.329Z,82.17
2022-09-03T08:49:35.660Z,80.37
2022-09-03T08:52:09.866Z,80.08
2022-09-03T08:54:39.118Z,78.96
2022-09-03T08:57:08.729Z,80.23
2022-09-03T08:59:38.264Z,75.79
2022-09-03T09:02:25.458Z,75.39
2022-09-03T09:05:06.283Z,75.44
2022-09-03T09:07:42.394Z,75.14
2022-09-03T09:10:17.526Z,78.18
2022-09-03T09:12:56.041Z,78.16
2022-09-03T09:15:31.662Z,77.81
2022-09-03T09:18:11.904Z,78.67
2022-09-03T09:20:48.935Z,77.98
2022-09-03T09:23:25.972Z,76.61
2022-09-03T09:25:57.649Z,77.37
2022-09-03T09:28:30.273Z,77.84
2022-09-03T09:31:01.568Z,74.95
2022-09-03T09:33:32.460Z,76.01
2022-09-03T09:36:04.155Z,75.41
2022-09-03T09:38:33.503Z,76.31
2022-09-03T09:41:11.080Z,75.25
2022-09-03T09:43:39.797Z,73.17
2022-09-03T09:46:13.675Z,71.73
2022-09-03T09:48:50.254Z,70.10
2022-09-03T09:51:23.498Z,70.23
2022-09-03T09:54:02.379Z,69.95
2022-09-03T09:56:30.815Z,69.12
2022-09-03T09:59:06.630Z,67.12
2022-09-03T10:01:39.090Z,65.97
2022-09-03T10:04:12.412Z,69.64
2022-09-03T10:06:57.226Z,67.78
2022-09-03T10:09:31.520Z,60.20
2022-09-03T10:12:14.504Z,60.73
2022-09-03T10:14:48.673Z,58.71
2022-09-03T10:17:36.707Z,58.32
2022-09-03T10:20:30.089Z,58.82
2022-09-03T10:23:02.564Z,57.14
2022-09-03T10:25:40.155Z,56.61
2022-09-03T10:28:13.242Z,53.87
2022-09-03T10:31:03.749Z,52.65
2022-09-03T10:33:37.898Z,50.93
2022-09-03T10:36:15.907Z,49.32
2022-09-03T10:38:45.157Z,49.88
2022-09-03T10:41:30.045Z,49.36
2022-09-03T10:44:13.096Z,48.24
2022-09-03T10:46:51.745Z,50.07
2022-09-03T10:49:31.083Z,49.39
2022-09-03T10:52:08.982Z,50.57
2022-09-03T10:54:53.849Z,49.59
2022-09-03T10:57:39.156Z,49.79
2022-09-03T11:00:10.102Z,48.53
2022-09-03T11:03:10.441Z,45.02
2022-09-03T11:05:43.782Z,45.65
2022-09-03T11:08:18.099Z,43.61
2022-09-03T11:10:51.278Z,44.94
2022-09-03T11:13:26.088Z,45.80
2022-09-03T11:15:59.919Z,43.82
2022-09-03T11:18:35.034Z,43.09
2022-09-03T11:21:12.385Z,44.09
2022-09-03T11:23:43.893Z,44.04
2022-09-03T11:26:14.432Z,43.16
2022-09-03T11:28:50.165Z,44.85
2022-09-03T11:31:25.909Z,43.73
2022-09-03T11:34:01.603Z,43.02
2022-09-03T11:36:35.038Z,44.12
2022-09-03T11:39:16.806Z,45.29
2022-09-03T11:41:45.375Z,45.35
2022-09-03T11:44:19.478Z,46.26
2022-09-03T11:46:58.533Z,45.84
2022-09-03T11:49:31.054Z,44.90
2022-09-03T11:52:08.026Z,45.56
2022-09-03T11:54:45.848Z,45.19
2022-09-03T11:57:15.836Z,45.27
2022-09-03T11:59:45.360Z,44.61
2022-09-03T12:02:28.947Z,46.51
2022-09-03T12:05:16.023Z,43.55
2022-09-03T12:08:06.726Z,44.86
2022-09-03T12:10:42.556Z,45.18
2022-09-03T12:13:24.258Z,45.74
2022-09-03T12:16:26.212Z,44.05
2022-09-03T12:18:57.556Z,45.08
2022-09-03T12:21:26.806Z,45.35
2022-09-03T12:23:58.445Z,43.99
2022-09-03T12:26:28.094Z,43.00
2022-09-03T12:28:57.830Z,41.72
2022-09-03T12:31:29.680Z,42.00
2022-09-03T12:34:00.887Z,40.17
2022-09-03T12:36:38.519Z,40.10
2022-09-03T12:39:12.795Z,37.52
2022-09-03T12:42:11.811Z,33.02
2022-09-03T12:44:42.215Z,31.20
2022-09-03T12:50:09.335Z,30.29
2022-09-03T12:52:42.843Z,32.41
2022-09-03T12:55:27.775Z,31.42
2022-09-03T12:58:05.467Z,28.58
2022-09-03T13:00:35.795Z,30.90
2022-09-03T13:03:09.095Z,31.83
2022-09-03T13:05:44.616Z,31.55
2022-09-03T13:08:19.176Z,29.89
2022-09-03T13:10:54.570Z,28.24
2022-09-03T13:13:26.204Z,27.86
2022-09-03T13:16:05.859Z,26.95
2022-09-03T13:18:43.738Z,27.42
2022-09-03T13:21:19.829Z,26.57
2022-09-03T13:24:04.096Z,23.63
2022-09-03T13:26:46.639Z,21.91
2022-09-03T13:29:40.674Z,22.03
2022-09-03T13:32:19.619Z,22.02
2022-09-03T13:34:53.754Z,21.65
2022-09-03T13:37:29.693Z,23.86
2022-09-03T13:40:00.852Z,23.97
2022-09-03T13:42:40.466Z,24.41
2022-09-03T13:45:22.078Z,25.38
2022-09-03T13:48:15.434Z,25.54
2022-09-03T13:50:49.220Z,28.26
2022-09-03T13:53:22.727Z,29.92
2022-09-03T13:55:55.669Z,29.74
2022-09-03T13:58:31.033Z,28.17
2022-09-03T14:01:13.412Z,25.79
2022-09-03T14:03:49.162Z,22.11
2022-09-03T14:06:27.548Z,21.86
2022-09-03T14:09:07.597Z,20.66
2022-09-03T14:11:48.101Z,20.18
2022-09-03T14:14:32.629Z,21.05
2022-09-03T14:17:12.412Z,20.21
2022-09-03T14:19:47.789Z,20.63
2022-09-03T14:22:21.681Z,20.14
2022-09-03T14:24:53.709Z,20.18
2022-09-03T14:27:27.123Z,19.49
2022-09-03T14:30:01.835Z,19.42
2022-09-03T14:32:36.728Z,19.80
2022-09-03T14:35:45.701Z,19.53
2022-09-03T14:38:42.550Z,20.00
2022-09-03T14:41:30.666Z,17.94
2022-09-03T14:44:16.490Z,18.74
2022-09-03T14:46:58.433Z,18.99
2022-09-03T14:49:54.014Z,18.99
2022-09-03T14:52:38.267Z,20.39
2022-09-03T14:55:26.244Z,19.41
2022-09-03T14:58:20.617Z,20.64
2022-09-03T15:00:59.330Z,22.62
2022-09-03T15:04:15.377Z,23.08
2022-09-03T15:06:57.657Z,20.92
2022-09-03T15:09:36.774Z,20.27
2022-09-03T15:12:11.385Z,20.61
2022-09-03T15:14:47.517Z,20.62
2022-09-03T15:17:35.290Z,20.17
2022-09-03T15:20:21.891Z,21.39
2022-09-03T15:23:13.227Z,21.63
2022-09-03T15:26:10.978Z,22.21
2022-09-03T15:28:47.736Z,23.10
2022-09-03T15:31:23.280Z,23.58
2022-09-03T15:33:59.616Z,22.87
2022-09-03T15:36:37.243Z,23.78
2022-09-03T15:39:13.569Z,23.80
2022-09-03T15:41:45.837Z,24.32
2022-09-03T15:44:19.610Z,24.21
2022-09-03T15:46:56.686Z,23.68
2022-09-03T15:49:32.945Z,22.92
2022-09-03T15:52:10.773Z,23.41
2022-09-03T15:54:48.239Z,23.94
2022-09-03T15:57:21.452Z,25.11
2022-09-03T15:59:56.035Z,24.54
2022-09-03T16:02:33.560Z,23.58
2022-09-03T16:05:14.197Z,23.89
2022-09-03T16:08:08.478Z,24.60
2022-09-03T16:10:58.876Z,25.07
2022-09-03T16:13:44.846Z,25.65
2022-09-03T16:16:17.134Z,24.74
2022-09-03T16:18:55.040Z,24.43
2022-09-03T16:21:27.589Z,23.68
2022-09-03T16:24:01.510Z,25.08
2022-09-03T16:26:34.605Z,24.46
2022-09-03T16:29:09.133Z,25.08
2022-09-03T16:31:51.033Z,25.00
2022-09-03T16:34:32.861Z,25.35
2022-09-03T16:37:09.708Z,24.56
2022-09-03T16:39:49.914Z,26.11
2022-09-03T16:42:27.403Z,26.59
2022-09-03T16:45:11.854Z,28.55
2022-09-03T16:47:57.145Z,28.70
2022-09-03T16:50:40.664Z,29.96
2022-09-03T16:53:15.688Z,30.40
2022-09-03T16:56:01.727Z,31.43
2022-09-03T16:58:39.381Z,33.54
2022-09-03T17:01:20.644Z,34.50
2022-09-03T17:04:05.592Z,36.47
2022-09-03T17:06:57.480Z,37.23
2022-09-03T17:09:39.385Z,38.36
2022-09-03T17:12:19.732Z,39.08
2022-09-03T17:15:01.785Z,39.13
2022-09-03T17:17:48.779Z,39.74
2022-09-03T17:20:22.746Z,40.04
2022-09-03T17:23:04.682Z,40.90
2022-09-03T17:25:37.285Z,41.25
2022-09-03T17:28:25.006Z,42.32
2022-09-03T17:30:58.753Z,43.21
2022-09-03T17:33:46.090Z,43.31
2022-09-03T17:36:17.996Z,43.30
2022-09-03T17:39:13.038Z,43.99
2022-09-03T17:41:46.114Z,44.61
2022-09-03T17:44:24.344Z,45.04
2022-09-03T17:47:04.453Z,45.34
2022-09-03T17:49:36.322Z,45.98
2022-09-03T17:52:08.330Z,45.60
2022-09-03T17:54:42.085Z,45.99
2022-09-03T17:57:19.904Z,46.57
2022-09-03T17:59:57.965Z,46.60
2022-09-03T18:02:34.537Z,47.01
2022-09-03T18:05:09.786Z,46.93
2022-09-03T18:07:45.265Z,47.04
2022-09-03T18:10:29.265Z,47.22
2022-09-03T18:13:06.086Z,47.53
2022-09-03T18:15:49.348Z,48.83
2022-09-03T18:18:25.758Z,47.99
2022-09-03T18:21:25.249Z,48.40
2022-09-03T18:24:19.707Z,48.98
2022-09-03T18:27:11.612Z,49.28
2022-09-03T18:30:05.256Z,49.69
2022-09-03T18:32:52.286Z,49.62
2022-09-03T18:35:37.775Z,50.08
2022-09-03T18:38:23.330Z,50.52
2022-09-03T18:41:13.922Z,50.52
2022-09-03T18:44:12.205Z,50.70
2022-09-03T18:50:24.779Z,51.69
2022-09-03T18:53:14.952Z,52.37
2022-09-03T18:56:15.559Z,52.21
2022-09-03T18:59:14.145Z,52.16
2022-09-03T19:02:01.653Z,53.06
2022-09-03T19:04:58.079Z,53.78
2022-09-03T19:08:00.025Z,54.04
2022-09-03T19:10:52.433Z,54.66
2022-09-03T19:13:50.643Z,54.77
2022-09-03T19:16:42.657Z,54.22
2022-09-03T19:19:44.615Z,54.36
2022-09-03T19:22:31.762Z,55.52
2022-09-03T19:25:21.374Z,55.65
2022-09-03T19:28:21.298Z,55.77
2022-09-03T19:31:16.813Z,56.74
2022-09-03T19:34:11.583Z,56.38
2022-09-03T19:37:03.010Z,56.20
2022-09-03T19:40:07.213Z,56.66
2022-09-03T19:43:06.374Z,57.69
2022-09-03T19:46:03.604Z,57.64
2022-09-03T19:48:59.680Z,58.64
2022-09-03T19:51:50.767Z,58.79
2022-09-03T19:54:39.425Z,58.34
2022-09-03T19:57:25.158Z,58.79
2022-09-03T20:00:12.033Z,59.75
2022-09-03T20:02:59.028Z,59.87
2022-09-03T20:05:45.174Z,60.37
2022-09-03T20:08:35.214Z,60.64
2022-09-03T20:11:05.161Z,61.50
2022-09-03T20:13:54.655Z,61.42
2022-09-03T20:16:32.570Z,61.74
2022-09-03T20:19:11.340Z,62.48
2022-09-03T20:21:43.485Z,62.26
2022-09-03T20:24:26.827Z,63.23
2022-09-03T20:27:05.191Z,63.34
2022-09-03T20:29:56.400Z,63.44
2022-09-03T20:32:55.877Z,64.19
2022-09-03T20:35:36.167Z,64.94
2022-09-03T20:38:19.753Z,66.13
2022-09-03T20:40:53.785Z,67.02
2022-09-03T20:43:40.228Z,67.76
2022-09-03T20:46:35.728Z,69.13
2022-09-03T20:49:20.164Z,71.17
2022-09-03T20:51:56.442Z,73.37
2022-09-03T20:54:32.188Z,74.19
2022-09-03T20:57:18.360Z,76.57
2022-09-03T21:00:02.457Z,78.57
2022-09-03T21:02:53.384Z,80.00
2022-09-03T21:05:29.434Z,80.71
2022-09-03T21:08:06.390Z,82.58
2022-09-03T21:10:43.409Z,84.86
2022-09-03T21:13:17.244Z,86.83
2022-09-03T21:15:57.162Z,89.35
2022-09-03T21:18:34.806Z,91.31
2022-09-03T21:21:16.112Z,92.88
2022-09-03T21:23:47.985Z,94.35
2022-09-03T21:26:21.394Z,95.64
2022-09-03T21:28:59.550Z,99.65
2022-09-03T21:31:38.450Z,99.74
2022-09-03T21:34:10.914Z,100.00
2022-09-03T21:36:44.178Z,100.00
2022-09-03T21:39:19.244Z,100.00
2022-09-03T21:41:54.381Z,100.00
2022-09-03T21:44:27.965Z,100.00
2022-09-03T21:47:00.475Z,100.00
2022-09-03T21:49:34.428Z,100.00
2022-09-03T21:52:08.082Z,100.00
2022-09-03T21:54:36.592Z,100.00
2022-09-03T21:57:14.210Z,100.00
2022-09-03T22:00:18.960Z,100.00
2022-09-03T22:02:48.701Z,100.00
2022-09-03T22:05:18.485Z,100.00
2022-09-03T22:08:04.344Z,100.00
2022-09-03T22:10:35.743Z,100.00
2022-09-03T22:13:16.091Z,100.00
2022-09-03T22:15:50.085Z,100.00
2022-09-03T22:18:29.237Z,100.00
2022-09-03T22:21:04.125Z,100.00
2022-09-03T22:23:42.917Z,100.00
2022-09-03T22:26:23.935Z,100.00
2022-09-03T22:29:03.829Z,100.00
2022-09-03T22:31:47.144Z,100.00
2022-09-03T22:34:27.412Z,100.00
2022-09-03T22:37:03.604Z,100.00
2022-09-03T22:39:39.084Z,100.00
2022-09-03T22:42:21.094Z,100.00
2022-09-03T22:45:24.289Z,100.00
2022-09-03T22:48:08.233Z,100.00
2022-09-03T22:50:46.649Z,100.00
2022-09-03T22:53:27.588Z,100.00
2022-09-03T22:56:13.176Z,100.00
2022-09-03T22:58:51.940Z,100.00
2022-09-03T23:01:25.891Z,100.00
2022-09-03T23:04:00.121Z,100.00
2022-09-03T23:06:33.430Z,100.00
2022-09-03T23:09:06.090Z,100.00
2022-09-03T23:11:39.603Z,100.00
2022-09-03T23:14:12.514Z,100.00
2022-09-03T23:16:43.222Z,100.00
2022-09-03T23:21:53.385Z,100.00
2022-09-03T23:24:28.905Z,100.00
2022-09-03T23:27:01.415Z,100.00
2022-09-03T23:29:35.260Z,100.00
2022-09-03T23:32:05.130Z,100.00
2022-09-03T23:34:33.861Z,100.00
2022-09-03T23:37:33.808Z,100.00
2022-09-03T23:40:24.084Z,100.00
2022-09-03T23:43:20.966Z,100.00
2022-09-03T23:46:00.348Z,100.00
2022-09-03T23:48:37.738Z,100.00
2022-09-03T23:51:15.274Z,100.00
2022-09-03T23:53:53.342Z,100.00
2022-09-03T23:56:45.810Z,100.00
2022-09-03T23:59:25.206Z,100.00
